Time;durP1;ratioP1;P1;durP2;ratioP2;P2;SDS_P1;SDS_P2;PMS_P1;PMS_P2;Temp;Humidity;BMP_temperature;BMP_pressure;BME280_temperature;BME280_humidity;BME280_pressure;Samples;Min_cycle;Max_cycle;Signal;HPM_P1;HPM_P2
2022/01/08 00:02:10;;;;;;;17.30;11.48;;;3.80;85.00;;;;;;4964292;28;20440;-86
2022/01/08 00:04:36;;;;;;;15.95;12.15;;;3.70;85.00;;;;;;4979375;28;20152;-86
2022/01/08 00:07:02;;;;;;;16.48;11.75;;;3.80;85.20;;;;;;4973669;28;20058;-86
2022/01/08 00:09:27;;;;;;;16.25;12.23;;;3.80;85.10;;;;;;4990451;28;20116;-86
2022/01/08 00:11:53;;;;;;;17.48;12.13;;;3.80;85.10;;;;;;4995871;28;20496;-87
2022/01/08 00:14:21;;;;;;;17.42;11.55;;;3.70;85.00;;;;;;4964319;28;20033;-90
2022/01/08 00:16:47;;;;;;;12.38;10.55;;;3.70;84.90;;;;;;4996864;28;20030;-89
2022/01/08 00:19:13;;;;;;;14.68;10.85;;;3.70;84.60;;;;;;4997464;28;20508;-89
2022/01/08 00:21:39;;;;;;;13.32;10.15;;;3.70;84.40;;;;;;4979116;28;20089;-89
2022/01/08 00:24:04;;;;;;;12.73;10.80;;;3.70;84.20;;;;;;4996681;28;20053;-89
2022/01/08 00:26:30;;;;;;;15.35;10.63;;;3.70;84.00;;;;;;4996606;28;20041;-89
2022/01/08 00:28:56;;;;;;;14.43;10.82;;;3.60;83.80;;;;;;4980576;28;20026;-89
2022/01/08 00:31:22;;;;;;;15.60;11.20;;;3.60;83.80;;;;;;4995396;28;20034;-89
2022/01/08 00:33:48;;;;;;;16.10;11.70;;;3.60;83.70;;;;;;4993421;28;20030;-89
2022/01/08 00:36:14;;;;;;;15.10;11.45;;;3.50;83.70;;;;;;4996613;28;20064;-89
2022/01/08 00:38:40;;;;;;;17.80;11.90;;;3.50;83.80;;;;;;4993558;28;20061;-89
2022/01/08 00:41:05;;;;;;;15.60;11.70;;;3.50;83.90;;;;;;5005997;28;20030;-90
2022/01/08 00:43:31;;;;;;;16.30;12.05;;;3.50;84.10;;;;;;4996496;28;20018;-89
2022/01/08 00:45:57;;;;;;;16.65;13.02;;;3.40;84.30;;;;;;4996451;28;20101;-89
2022/01/08 00:48:23;;;;;;;14.50;11.30;;;3.40;84.50;;;;;;4980765;28;20034;-89
2022/01/08 00:50:52;;;;;;;15.35;12.15;;;3.40;84.50;;;;;;4980566;28;20021;-89
2022/01/08 00:53:18;;;;;;;15.18;12.10;;;3.40;84.50;;;;;;4973682;28;20030;-89
2022/01/08 00:55:44;;;;;;;16.38;11.90;;;3.40;84.50;;;;;;4971532;28;20487;-88
2022/01/08 00:58:10;;;;;;;15.32;12.25;;;3.40;84.30;;;;;;4988862;28;20058;-89
2022/01/08 01:00:36;;;;;;;15.73;11.95;;;3.40;84.20;;;;;;4981324;28;20041;-89
2022/01/08 01:03:02;;;;;;;16.38;12.70;;;3.40;84.10;;;;;;4950215;28;20023;-89
2022/01/08 01:05:28;;;;;;;16.15;12.95;;;3.30;84.10;;;;;;4996167;28;20033;-89
2022/01/08 01:07:54;;;;;;;15.68;12.13;;;3.30;84.30;;;;;;4967193;28;20030;-90
2022/01/08 01:10:20;;;;;;;16.77;13.05;;;3.30;84.40;;;;;;4975349;28;20120;-90
2022/01/08 01:12:46;;;;;;;19.73;13.18;;;3.30;84.40;;;;;;4988662;28;20495;-89
2022/01/08 01:15:14;;;;;;;18.60;13.15;;;3.30;84.60;;;;;;4993070;28;20026;-89
2022/01/08 01:17:41;;;;;;;22.02;13.77;;;3.30;84.80;;;;;;4995424;28;20041;-86
2022/01/08 01:20:08;;;;;;;23.20;15.02;;;3.30;84.90;;;;;;4979145;28;20038;-86
2022/01/08 01:22:51;;;;;;;20.38;14.43;;;3.30;85.10;;;;;;5000500;28;20382;-86
2022/01/08 01:25:23;;;;;;;19.40;14.50;;;3.30;85.40;;;;;;4995752;28;20042;-86
2022/01/08 01:28:14;;;;;;;16.52;13.95;;;3.30;85.60;;;;;;4967466;28;20057;-85
2022/01/08 01:49:08;;;;;;;17.38;13.77;;;3.20;86.10;;;;;;5000156;28;20455;-88
2022/01/08 01:51:34;;;;;;;24.80;15.80;;;3.20;86.10;;;;;;5001192;28;20029;-88
2022/01/08 01:53:59;;;;;;;22.70;15.27;;;3.20;86.20;;;;;;4997297;28;20491;-89
2022/01/08 01:56:25;;;;;;;22.73;15.18;;;3.10;86.20;;;;;;4964648;28;20036;-88
2022/01/08 01:58:51;;;;;;;17.75;14.13;;;3.10;86.30;;;;;;4990699;28;20030;-88
2022/01/08 02:01:20;;;;;;;21.05;15.27;;;3.10;86.30;;;;;;4977528;28;20042;-89
2022/01/08 02:03:46;;;;;;;22.42;15.85;;;3.10;86.30;;;;;;5001165;28;20028;-89
2022/01/08 02:06:12;;;;;;;21.25;14.27;;;3.10;86.40;;;;;;4994875;28;20029;-88
2022/01/08 02:08:38;;;;;;;22.60;15.45;;;3.00;86.40;;;;;;4994279;28;20033;-88
2022/01/08 02:11:06;;;;;;;18.77;14.60;;;3.00;86.60;;;;;;5011574;28;20026;-89
2022/01/08 02:13:32;;;;;;;18.75;13.93;;;3.00;86.70;;;;;;4979505;28;20018;-85
2022/01/08 02:16:00;;;;;;;26.00;14.75;;;3.00;86.70;;;;;;4980123;28;20392;-85
2022/01/08 02:18:27;;;;;;;19.05;13.43;;;3.00;86.70;;;;;;4995634;28;20037;-85
2022/01/08 02:20:54;;;;;;;20.30;14.00;;;3.00;86.70;;;;;;4995838;28;20065;-85
2022/01/08 02:23:20;;;;;;;18.27;13.80;;;3.00;86.80;;;;;;5012522;28;20092;-85
2022/01/08 02:25:45;;;;;;;17.27;12.68;;;3.00;86.80;;;;;;4980514;28;20021;-85
2022/01/08 02:28:11;;;;;;;19.15;13.50;;;3.00;86.80;;;;;;4976241;28;20474;-85
2022/01/08 02:30:37;;;;;;;16.50;13.60;;;3.00;86.80;;;;;;4993108;28;20157;-85
2022/01/08 02:33:03;;;;;;;18.27;12.93;;;3.00;86.70;;;;;;4995681;28;20437;-85
2022/01/08 02:35:29;;;;;;;20.10;14.13;;;3.10;86.60;;;;;;4996511;28;20123;-86
2022/01/08 02:37:54;;;;;;;20.52;13.52;;;3.10;86.50;;;;;;4979368;28;20029;-85
2022/01/08 02:40:22;;;;;;;18.90;13.40;;;3.10;86.30;;;;;;4978712;28;20523;-85
2022/01/08 02:43:02;;;;;;;20.08;13.93;;;3.10;86.10;;;;;;4980049;28;20037;-85
2022/01/08 02:45:29;;;;;;;17.00;12.85;;;3.10;86.00;;;;;;4981160;28;20037;-85
2022/01/08 02:47:56;;;;;;;17.80;12.85;;;3.10;85.90;;;;;;4963281;28;20029;-86
2022/01/08 02:50:23;;;;;;;18.00;12.27;;;3.10;85.70;;;;;;4991916;28;20121;-85
2022/01/08 02:52:49;;;;;;;18.13;11.85;;;3.10;85.50;;;;;;5001212;28;20625;-86
2022/01/08 02:55:16;;;;;;;18.50;12.75;;;3.00;85.40;;;;;;4980169;28;20065;-85
2022/01/08 02:57:42;;;;;;;17.05;12.50;;;3.00;85.40;;;;;;4979711;28;20461;-85
2022/01/08 03:00:10;;;;;;;18.67;12.80;;;3.00;85.20;;;;;;4963898;28;20036;-88
2022/01/08 03:02:43;;;;;;;16.73;12.77;;;3.00;85.20;;;;;;4996037;28;20018;-88
2022/01/08 03:05:11;;;;;;;18.63;12.52;;;3.00;85.20;;;;;;4977922;28;20034;-85
2022/01/08 03:07:41;;;;;;;16.58;13.13;;;3.00;85.30;;;;;;4993643;28;20033;-86
2022/01/08 03:10:08;;;;;;;18.50;13.30;;;3.00;85.40;;;;;;4994034;28;20086;-86
2022/01/08 03:12:38;;;;;;;16.23;13.20;;;3.10;85.40;;;;;;4958501;28;20027;-86
2022/01/08 03:15:05;;;;;;;20.08;13.50;;;3.10;85.50;;;;;;4974103;28;20038;-86
2022/01/08 03:17:30;;;;;;;18.27;13.55;;;3.10;85.50;;;;;;4971983;28;20048;-86
2022/01/08 03:20:03;;;;;;;19.00;12.63;;;3.10;85.70;;;;;;4979542;28;20034;-86
2022/01/08 03:22:29;;;;;;;22.65;13.45;;;3.10;85.80;;;;;;5013299;28;20041;-86
2022/01/08 03:24:55;;;;;;;23.00;13.40;;;3.10;86.00;;;;;;4966628;28;20081;-86
2022/01/08 03:27:21;;;;;;;19.45;13.13;;;3.10;86.10;;;;;;4982888;28;20030;-86
2022/01/08 03:29:47;;;;;;;15.57;12.35;;;3.10;86.10;;;;;;4967273;28;20030;-86
2022/01/08 03:32:13;;;;;;;15.65;11.63;;;3.10;86.20;;;;;;4998340;28;20030;-86
2022/01/08 03:34:39;;;;;;;17.50;12.20;;;3.10;86.30;;;;;;4980502;28;20037;-86
2022/01/08 03:37:05;;;;;;;18.50;12.30;;;3.10;86.40;;;;;;4996887;28;20029;-86
2022/01/08 03:39:30;;;;;;;15.40;11.25;;;3.10;86.40;;;;;;4980662;28;20097;-85
2022/01/08 03:41:56;;;;;;;23.25;12.65;;;3.20;86.50;;;;;;4980842;28;20056;-86
2022/01/08 03:44:22;;;;;;;14.82;10.98;;;3.20;86.50;;;;;;4996366;28;20037;-85
2022/01/08 03:46:47;;;;;;;17.70;11.32;;;3.20;86.40;;;;;;4979724;28;20034;-85
2022/01/08 03:49:24;;;;;;;21.48;11.63;;;3.20;86.30;;;;;;4980227;28;20037;-85
2022/01/08 03:51:51;;;;;;;20.42;11.35;;;3.20;86.20;;;;;;4981164;28;20040;-85
2022/01/08 03:54:17;;;;;;;19.25;11.75;;;3.20;86.20;;;;;;4996311;28;20030;-86
2022/01/08 03:56:43;;;;;;;15.18;11.30;;;3.20;86.20;;;;;;4990501;28;20026;-85
2022/01/08 03:59:08;;;;;;;20.40;11.73;;;3.20;86.20;;;;;;4973292;28;20031;-85
2022/01/08 04:01:34;;;;;;;16.33;11.80;;;3.20;86.10;;;;;;4992691;28;20104;-85
2022/01/08 04:04:00;;;;;;;18.50;12.07;;;3.20;86.00;;;;;;4980243;28;20034;-85
2022/01/08 04:06:25;;;;;;;21.10;12.95;;;3.20;86.10;;;;;;4980511;28;20096;-86
2022/01/08 04:08:56;;;;;;;17.35;11.50;;;3.20;86.00;;;;;;4964875;28;20580;-85
2022/01/08 04:11:26;;;;;;;15.13;10.80;;;3.10;86.00;;;;;;4997539;28;20393;-85
2022/01/08 04:13:53;;;;;;;13.90;10.60;;;3.10;86.10;;;;;;4996185;28;20022;-86
2022/01/08 04:16:25;;;;;;;14.35;11.13;;;3.10;86.10;;;;;;4996600;28;20030;-86
2022/01/08 04:18:50;;;;;;;21.37;13.50;;;3.10;86.10;;;;;;4981007;28;20054;-85
2022/01/08 04:21:59;;;;;;;17.13;11.48;;;3.10;86.10;;;;;;4964153;28;20028;-85
2022/01/08 04:24:08;;;;;;;18.67;12.85;;;3.00;86.10;;;;;;5002822;28;20057;-85
2022/01/08 04:26:33;;;;;;;17.70;11.57;;;3.00;86.10;;;;;;4995791;28;20488;-85
2022/01/08 04:28:59;;;;;;;13.98;10.52;;;3.00;86.20;;;;;;4996268;28;20036;-85
2022/01/08 04:31:26;;;;;;;18.05;11.02;;;3.00;86.20;;;;;;5013642;28;20033;-89
2022/01/08 04:33:52;;;;;;;18.90;11.63;;;3.00;86.20;;;;;;4979810;28;20033;-89
2022/01/08 04:36:19;;;;;;;18.55;10.00;;;3.00;86.20;;;;;;4996133;28;20380;-85
2022/01/08 04:38:45;;;;;;;15.20;9.63;;;3.00;86.10;;;;;;5012993;28;20026;-85
2022/01/08 04:41:11;;;;;;;13.82;10.18;;;3.00;86.00;;;;;;4995595;28;20053;-85
2022/01/08 04:43:42;;;;;;;17.80;10.60;;;3.00;85.90;;;;;;4979742;28;20038;-85
2022/01/08 04:46:08;;;;;;;14.38;10.13;;;2.90;85.60;;;;;;4996241;28;20026;-85
2022/01/08 04:48:33;;;;;;;14.10;10.32;;;2.90;85.40;;;;;;4996183;28;20113;-85
2022/01/08 04:50:59;;;;;;;13.45;10.20;;;2.90;85.30;;;;;;4996235;28;20065;-88
2022/01/08 04:53:25;;;;;;;17.65;10.40;;;2.90;85.20;;;;;;4996542;28;20040;-85
2022/01/08 04:55:51;;;;;;;16.25;11.45;;;2.90;85.00;;;;;;4996926;28;20022;-85
2022/01/08 04:58:16;;;;;;;14.98;10.40;;;2.90;85.10;;;;;;4976455;28;20021;-88
2022/01/08 05:00:42;;;;;;;13.48;10.05;;;2.80;85.10;;;;;;4990904;28;20027;-89
2022/01/08 05:03:08;;;;;;;14.05;9.77;;;2.80;85.10;;;;;;4992684;28;20074;-88
2022/01/08 05:05:34;;;;;;;15.93;9.93;;;2.80;85.00;;;;;;4979796;28;20040;-88
2022/01/08 05:07:59;;;;;;;17.65;10.38;;;2.80;84.90;;;;;;4963535;28;20473;-88
2022/01/08 05:10:25;;;;;;;13.38;9.80;;;2.70;84.60;;;;;;4979612;28;20040;-88
2022/01/08 05:12:51;;;;;;;12.48;10.10;;;2.70;84.50;;;;;;4978848;28;20022;-88
2022/01/08 05:15:17;;;;;;;12.18;9.55;;;2.70;84.50;;;;;;4995667;28;20640;-88
2022/01/08 05:17:46;;;;;;;12.98;9.20;;;2.70;84.60;;;;;;4994518;28;20129;-89
2022/01/08 05:20:20;;;;;;;13.20;9.23;;;2.60;84.40;;;;;;4980648;28;20444;-88
2022/01/08 05:25:17;;;;;;;14.55;9.50;;;2.60;84.20;;;;;;4996041;28;20029;-86
2022/01/08 05:27:43;;;;;;;13.63;9.93;;;2.60;84.10;;;;;;4979465;28;20389;-87
2022/01/08 05:30:09;;;;;;;13.38;10.20;;;2.60;84.10;;;;;;4963336;28;20045;-86
2022/01/08 05:32:35;;;;;;;16.15;10.77;;;2.50;84.20;;;;;;4978372;28;20499;-86
2022/01/08 05:35:00;;;;;;;16.23;10.23;;;2.50;84.20;;;;;;4978516;28;20034;-85
2022/01/08 05:37:26;;;;;;;14.75;9.88;;;2.50;84.30;;;;;;4978585;28;20029;-86
2022/01/08 05:39:53;;;;;;;16.77;10.07;;;2.50;84.50;;;;;;4978864;28;20489;-86
2022/01/08 05:42:19;;;;;;;15.73;9.95;;;2.50;84.80;;;;;;4978828;28;20116;-87
2022/01/08 05:44:45;;;;;;;17.63;9.73;;;2.50;85.00;;;;;;4994385;28;20042;-87
2022/01/08 05:47:11;;;;;;;15.30;10.13;;;2.50;85.10;;;;;;5011091;28;20025;-87
2022/01/08 05:49:37;;;;;;;18.60;11.00;;;2.50;85.10;;;;;;4993071;28;20388;-87
2022/01/08 05:52:03;;;;;;;18.33;10.20;;;2.50;85.30;;;;;;4996188;28;20022;-86
2022/01/08 05:54:29;;;;;;;17.92;11.20;;;2.50;85.40;;;;;;4998271;28;20029;-86
2022/01/08 05:56:55;;;;;;;15.18;10.10;;;2.40;85.50;;;;;;4982416;28;20022;-86
2022/01/08 05:59:26;;;;;;;14.38;9.55;;;2.40;85.60;;;;;;4983502;28;20026;-86
2022/01/08 06:01:53;;;;;;;16.58;9.30;;;2.40;85.70;;;;;;4992956;28;20393;-87
2022/01/08 06:04:19;;;;;;;15.75;9.32;;;2.40;85.60;;;;;;4993935;28;20061;-86
2022/01/08 06:06:45;;;;;;;17.73;9.90;;;2.40;85.70;;;;;;4995812;28;20422;-86
2022/01/08 06:09:20;;;;;;;19.90;10.10;;;2.40;85.70;;;;;;4966020;28;20053;-86
2022/01/08 06:11:46;;;;;;;19.80;11.27;;;2.40;85.80;;;;;;4981405;28;20041;-85
2022/01/08 06:14:12;;;;;;;18.52;10.77;;;2.40;85.80;;;;;;4977870;28;20018;-87
2022/01/08 06:16:38;;;;;;;15.95;9.32;;;2.40;85.90;;;;;;4961725;28;20120;-86
2022/01/08 06:19:10;;;;;;;15.77;9.52;;;2.40;85.90;;;;;;4961962;28;20030;-86
2022/01/08 06:21:36;;;;;;;15.63;9.73;;;2.40;85.90;;;;;;4993995;28;20398;-86
2022/01/08 06:24:03;;;;;;;18.55;10.13;;;2.40;85.90;;;;;;4977459;28;20273;-86
2022/01/08 06:26:29;;;;;;;17.08;9.18;;;2.30;85.90;;;;;;4975699;28;20030;-86
2022/01/08 06:28:54;;;;;;;14.73;9.57;;;2.30;85.80;;;;;;4993248;28;20026;-85
2022/01/08 06:31:24;;;;;;;14.30;9.43;;;2.30;85.90;;;;;;4993503;28;20037;-86
2022/01/08 06:33:56;;;;;;;12.05;8.85;;;2.30;86.00;;;;;;4994069;28;20105;-85
2022/01/08 06:36:23;;;;;;;;;;;2.30;86.10;;;;;;4978692;28;20041;-87
2022/01/08 06:38:50;;;;;;;15.23;8.98;;;2.30;86.20;;;;;;4995780;28;19913;-86
2022/01/08 06:41:16;;;;;;;24.48;10.48;;;2.20;86.30;;;;;;4982270;28;20088;-86
2022/01/08 06:43:42;;;;;;;17.33;9.80;;;2.30;86.50;;;;;;4980540;28;20018;-87
2022/01/08 06:46:08;;;;;;;16.40;9.63;;;2.20;86.50;;;;;;4993497;28;20030;-86
2022/01/08 06:48:33;;;;;;;15.48;9.20;;;2.30;86.70;;;;;;4993435;28;20036;-86
2022/01/08 06:50:59;;;;;;;17.40;8.93;;;2.30;86.60;;;;;;5011097;28;20037;-86
2022/01/08 06:53:25;;;;;;;19.95;9.45;;;2.30;86.60;;;;;;4977378;28;20037;-86
2022/01/08 06:55:51;;;;;;;18.17;8.77;;;2.30;86.60;;;;;;4993449;28;20061;-86
2022/01/08 06:58:19;;;;;;;21.00;11.10;;;2.30;86.60;;;;;;4996395;28;20053;-86
2022/01/08 07:00:44;;;;;;;17.38;9.18;;;2.30;86.60;;;;;;4961877;28;20444;-86
2022/01/08 07:03:11;;;;;;;18.42;9.40;;;2.30;86.60;;;;;;4992913;28;20034;-86
2022/01/08 07:05:37;;;;;;;17.20;10.10;;;2.20;86.70;;;;;;4965658;28;20048;-86
2022/01/08 07:08:03;;;;;;;18.33;9.48;;;2.30;86.70;;;;;;4996520;28;20691;-86
2022/01/08 07:10:29;;;;;;;16.83;10.52;;;2.30;86.80;;;;;;4983077;28;20172;-86
2022/01/08 07:12:54;;;;;;;18.50;10.05;;;2.20;86.80;;;;;;4976039;28;20142;-86
2022/01/08 07:15:20;;;;;;;20.27;9.90;;;2.30;86.90;;;;;;4973244;28;20397;-86
2022/01/08 07:17:46;;;;;;;16.77;9.52;;;2.30;86.80;;;;;;4988527;28;20046;-86
2022/01/08 07:20:12;;;;;;;20.63;10.48;;;2.30;86.90;;;;;;4960908;28;20022;-86
2022/01/08 07:22:38;;;;;;;20.98;10.60;;;2.30;86.80;;;;;;4977040;28;20117;-86
2022/01/08 07:25:05;;;;;;;17.73;11.95;;;2.30;86.70;;;;;;4961061;28;20112;-86
2022/01/08 07:27:32;;;;;;;14.98;10.00;;;2.30;86.60;;;;;;4993281;28;20034;-86
2022/01/08 07:30:00;;;;;;;17.23;9.93;;;2.30;86.60;;;;;;4961778;28;20052;-86
2022/01/08 07:32:26;;;;;;;19.90;10.50;;;2.30;86.60;;;;;;4976497;28;20046;-87
2022/01/08 07:34:51;;;;;;;24.58;11.15;;;2.30;86.70;;;;;;4976918;28;20033;-86
2022/01/08 07:37:17;;;;;;;23.77;12.63;;;2.30;86.70;;;;;;4978018;28;20029;-86
2022/01/08 07:39:43;;;;;;;25.27;13.10;;;2.30;86.80;;;;;;5013061;28;20085;-86
2022/01/08 07:42:08;;;;;;;22.10;10.60;;;2.30;86.90;;;;;;4991185;28;20045;-86
2022/01/08 07:44:34;;;;;;;20.92;11.60;;;2.30;86.90;;;;;;5000193;28;20029;-86
2022/01/08 07:47:00;;;;;;;20.50;10.90;;;2.30;86.90;;;;;;4993121;28;20038;-85
2022/01/08 07:49:26;;;;;;;18.67;10.43;;;2.30;86.90;;;;;;5009202;28;20425;-86
2022/01/08 07:51:52;;;;;;;17.48;10.40;;;2.30;86.80;;;;;;5012407;28;20028;-86
2022/01/08 07:54:18;;;;;;;17.75;10.50;;;2.30;86.60;;;;;;4998471;28;20018;-85
2022/01/08 07:56:43;;;;;;;18.10;10.38;;;2.40;86.40;;;;;;5002775;28;20057;-86
2022/01/08 07:59:09;;;;;;;17.88;10.80;;;2.40;86.30;;;;;;4994866;28;20034;-86
2022/01/08 08:01:35;;;;;;;18.75;10.55;;;2.40;86.20;;;;;;5000010;28;20484;-86
2022/01/08 08:04:00;;;;;;;17.55;11.98;;;2.40;86.20;;;;;;4979723;28;20027;-86
2022/01/08 08:06:26;;;;;;;20.88;13.90;;;2.40;86.10;;;;;;4983272;28;20037;-86
2022/01/08 08:08:52;;;;;;;22.58;15.02;;;2.40;86.00;;;;;;4973302;28;20084;-87
2022/01/08 08:11:18;;;;;;;21.73;13.75;;;2.40;85.90;;;;;;5001315;28;20117;-86
2022/01/08 08:13:43;;;;;;;24.23;12.63;;;2.40;85.90;;;;;;4979974;28;20032;-86
2022/01/08 08:16:09;;;;;;;23.52;12.18;;;2.50;85.90;;;;;;4977373;28;20022;-86
2022/01/08 08:18:35;;;;;;;18.05;11.85;;;2.50;85.90;;;;;;4970262;28;20501;-86
2022/01/08 08:21:00;;;;;;;17.63;10.85;;;2.50;85.90;;;;;;4970205;28;20109;-85
2022/01/08 08:23:26;;;;;;;17.15;11.75;;;2.50;85.80;;;;;;4996548;28;20034;-86
2022/01/08 08:25:52;;;;;;;20.45;11.70;;;2.50;85.90;;;;;;4991862;28;20030;-86
2022/01/08 08:28:17;;;;;;;21.77;12.05;;;2.50;85.90;;;;;;4990885;28;20113;-86
2022/01/08 08:30:43;;;;;;;18.23;11.50;;;2.50;86.00;;;;;;5002866;28;20026;-86
2022/01/08 08:33:09;;;;;;;26.85;12.05;;;2.60;86.30;;;;;;4997307;28;20046;-86
2022/01/08 08:35:35;;;;;;;16.58;11.35;;;2.60;86.50;;;;;;4985739;28;20691;-86
2022/01/08 08:38:00;;;;;;;19.92;11.20;;;2.60;87.10;;;;;;5004304;28;20061;-86
2022/01/08 08:40:26;;;;;;;22.90;12.38;;;2.60;86.50;;;;;;5006584;28;20040;-85
2022/01/08 08:42:52;;;;;;;17.70;11.30;;;2.70;86.50;;;;;;5007733;28;20025;-86
2022/01/08 08:45:18;;;;;;;17.77;11.25;;;2.70;86.50;;;;;;4984888;28;20034;-86
2022/01/08 08:47:44;;;;;;;16.52;11.18;;;2.70;86.50;;;;;;4990639;28;20025;-86
2022/01/08 08:50:15;;;;;;;25.95;12.25;;;2.70;86.50;;;;;;5007423;28;20029;-86
2022/01/08 08:52:41;;;;;;;18.83;12.70;;;2.70;86.60;;;;;;5020255;28;20091;-86
2022/01/08 08:55:08;;;;;;;18.10;11.75;;;2.70;86.70;;;;;;4971237;28;20045;-86
2022/01/08 08:57:34;;;;;;;21.55;13.25;;;2.80;86.70;;;;;;4990639;28;20022;-86
2022/01/08 09:00:00;;;;;;;20.05;12.23;;;2.70;86.90;;;;;;4986408;28;20021;-86
2022/01/08 09:02:25;;;;;;;16.95;11.95;;;2.80;87.00;;;;;;5004363;28;20037;-86
2022/01/08 09:04:51;;;;;;;15.98;11.77;;;2.80;87.00;;;;;;4986075;28;20029;-86
2022/01/08 09:07:17;;;;;;;20.55;12.35;;;2.70;87.10;;;;;;5003848;28;20034;-86
2022/01/08 09:09:44;;;;;;;23.75;12.55;;;2.80;87.20;;;;;;5017069;28;20039;-88
2022/01/08 09:12:14;;;;;;;19.58;11.80;;;2.80;87.30;;;;;;5004852;28;20053;-86
2022/01/08 09:14:40;;;;;;;18.20;11.02;;;2.80;87.40;;;;;;4986664;28;20076;-86
2022/01/08 09:17:07;;;;;;;21.83;12.77;;;2.80;87.30;;;;;;4997267;28;20103;-86
2022/01/08 09:19:33;;;;;;;21.70;11.77;;;2.80;87.30;;;;;;4983821;28;20054;-86
2022/01/08 09:22:01;;;;;;;17.90;12.50;;;2.90;87.30;;;;;;4989401;28;20036;-86
2022/01/08 09:24:28;;;;;;;20.40;12.68;;;2.90;87.30;;;;;;4989973;28;20140;-86
2022/01/08 09:26:53;;;;;;;17.48;11.80;;;2.90;87.40;;;;;;4995821;28;20033;-86
2022/01/08 09:29:19;;;;;;;21.10;12.40;;;2.90;87.40;;;;;;5029888;28;20034;-86
2022/01/08 09:31:45;;;;;;;20.23;12.15;;;2.90;87.50;;;;;;5000921;28;20036;-86
2022/01/08 09:34:12;;;;;;;18.45;12.07;;;3.00;87.50;;;;;;5003238;28;20036;-86
2022/01/08 09:36:38;;;;;;;19.48;11.65;;;3.00;87.60;;;;;;4988875;28;20068;-86
2022/01/08 09:39:06;;;;;;;20.35;11.35;;;3.00;87.70;;;;;;4997203;28;20018;-86
2022/01/08 09:41:32;;;;;;;16.77;10.77;;;3.00;87.70;;;;;;4995708;28;20443;-86
2022/01/08 09:43:58;;;;;;;20.02;12.30;;;3.00;87.70;;;;;;5005740;28;20021;-86
2022/01/08 09:46:24;;;;;;;18.27;11.95;;;3.10;87.80;;;;;;4983155;28;20405;-87
2022/01/08 09:48:50;;;;;;;17.48;11.82;;;3.10;87.80;;;;;;5005215;28;20029;-87
2022/01/08 09:51:17;;;;;;;21.63;12.68;;;3.10;87.90;;;;;;4994696;28;20022;-87
2022/01/08 09:53:44;;;;;;;18.98;10.80;;;3.10;87.90;;;;;;4988598;28;20473;-87
2022/01/08 09:56:10;;;;;;;21.15;12.60;;;3.10;87.90;;;;;;4995168;28;20021;-87
2022/01/08 09:58:36;;;;;;;18.60;11.55;;;3.10;88.20;;;;;;5000519;28;20060;-86
2022/01/08 10:01:02;;;;;;;18.35;10.50;;;3.10;88.20;;;;;;4995083;28;20033;-87
2022/01/08 10:03:33;;;;;;;17.63;11.32;;;3.10;88.20;;;;;;4982169;28;20033;-87
2022/01/08 10:06:00;;;;;;;18.50;11.10;;;3.10;88.30;;;;;;4994135;28;20053;-87
2022/01/08 10:08:31;;;;;;;17.20;10.40;;;3.20;88.30;;;;;;4994425;28;20076;-86
2022/01/08 10:10:58;;;;;;;17.00;11.45;;;3.20;88.30;;;;;;4994347;28;20034;-87
2022/01/08 10:13:28;;;;;;;20.80;11.10;;;3.20;88.40;;;;;;4976711;28;20077;-87
2022/01/08 10:18:41;;;;;;;19.42;13.02;;;3.20;88.70;;;;;;4997017;28;20147;-87
2022/01/08 10:21:24;;;;;;;19.70;13.45;;;3.30;88.80;;;;;;4978847;28;20472;-87
2022/01/08 10:23:58;;;;;;;22.58;12.80;;;3.30;88.90;;;;;;4984622;28;20027;-86
2022/01/08 10:26:45;;;;;;;25.02;13.90;;;3.30;88.90;;;;;;5003857;28;20037;-86
2022/01/08 10:29:12;;;;;;;25.00;14.38;;;3.30;89.00;;;;;;4985091;28;20037;-86
2022/01/08 10:31:53;;;;;;;24.35;14.23;;;3.20;88.90;;;;;;5010978;28;20125;-86
2022/01/08 10:34:21;;;;;;;23.20;14.82;;;3.30;89.10;;;;;;4993059;28;20492;-86
2022/01/08 10:36:54;;;;;;;23.08;14.10;;;3.30;89.10;;;;;;4993381;28;20026;-86
2022/01/08 10:39:31;;;;;;;25.92;14.88;;;3.30;89.10;;;;;;4997989;28;20551;-87
2022/01/08 10:41:59;;;;;;;24.10;14.55;;;3.30;89.10;;;;;;4976742;28;20049;-88
2022/01/08 10:44:31;;;;;;;24.52;14.15;;;3.40;89.20;;;;;;4993609;28;20469;-86
2022/01/08 10:46:57;;;;;;;20.40;14.02;;;3.40;89.20;;;;;;4992133;28;20022;-87
2022/01/08 10:49:45;;;;;;;26.02;16.50;;;3.50;89.20;;;;;;5011502;28;20097;-86
2022/01/08 10:52:16;;;;;;;20.95;14.15;;;3.60;88.80;;;;;;5004152;28;20377;-86
2022/01/08 10:54:57;;;;;;;26.25;14.65;;;3.70;88.80;;;;;;4993664;28;20037;-86
2022/01/08 10:57:36;;;;;;;21.75;13.93;;;3.70;88.60;;;;;;5004497;28;20021;-85
2022/01/08 11:00:08;;;;;;;24.88;14.13;;;3.90;88.50;;;;;;4987596;28;20030;-86
2022/01/08 11:02:35;;;;;;;25.88;14.73;;;3.90;88.20;;;;;;4986505;28;20477;-86
2022/01/08 11:05:07;;;;;;;24.15;14.88;;;4.00;88.00;;;;;;4977083;28;20026;-86
2022/01/08 11:07:33;;;;;;;27.67;14.95;;;4.00;87.90;;;;;;4964879;28;20504;-86
2022/01/08 11:10:04;;;;;;;20.38;14.75;;;4.00;87.80;;;;;;4977542;28;20029;-86
2022/01/08 11:12:36;;;;;;;20.40;13.68;;;4.10;87.70;;;;;;4973815;28;20490;-87
2022/01/08 11:17:54;;;;;;;20.48;13.52;;;4.20;87.40;;;;;;5005642;28;20088;-88
2022/01/08 11:20:22;;;;;;;28.00;13.30;;;4.20;87.50;;;;;;4993611;28;20032;-86
2022/01/08 11:22:50;;;;;;;27.90;14.02;;;4.10;87.30;;;;;;5010679;28;20105;-86
2022/01/08 11:25:17;;;;;;;24.70;15.63;;;4.10;87.50;;;;;;4988962;28;20018;-86
2022/01/08 11:27:54;;;;;;;23.08;14.75;;;4.10;87.50;;;;;;4998351;28;20141;-86
2022/01/08 11:30:23;;;;;;;23.80;13.95;;;4.10;87.60;;;;;;4993620;28;20164;-85
2022/01/08 11:32:56;;;;;;;27.70;16.35;;;4.10;87.40;;;;;;4979397;28;20481;-86
2022/01/08 11:35:23;;;;;;;29.33;16.58;;;4.10;87.30;;;;;;4993286;28;20481;-86
2022/01/08 11:37:51;;;;;;;32.25;17.27;;;4.10;87.00;;;;;;4964042;28;20034;-86
2022/01/08 11:40:19;;;;;;;36.63;19.25;;;4.00;87.10;;;;;;4969452;28;20496;-86
2022/01/08 11:42:46;;;;;;;24.35;16.60;;;4.00;87.10;;;;;;4988078;28;20022;-86
2022/01/08 11:45:21;;;;;;;26.92;16.35;;;4.00;87.30;;;;;;4982364;28;20101;-86
2022/01/08 11:47:53;;;;;;;26.83;16.30;;;4.10;87.60;;;;;;4996915;28;20481;-86
2022/01/08 11:50:21;;;;;;;30.30;16.65;;;4.10;87.40;;;;;;5003314;28;20029;-86
2022/01/08 11:53:23;;;;;;;27.17;15.73;;;4.10;87.30;;;;;;4999360;28;20559;-86
2022/01/08 11:56:00;;;;;;;26.60;15.98;;;4.10;87.40;;;;;;5013412;28;20026;-87
2022/01/08 11:58:31;;;;;;;24.58;14.98;;;4.10;87.30;;;;;;5003352;28;20029;-87
2022/01/08 12:00:59;;;;;;;26.63;14.73;;;4.20;87.30;;;;;;4996760;28;20057;-87
2022/01/08 12:04:01;;;;;;;26.75;14.52;;;4.10;87.20;;;;;;4989407;28;20064;-87
2022/01/08 12:06:34;;;;;;;26.20;15.63;;;4.10;87.20;;;;;;4992215;28;20100;-86
2022/01/08 12:11:46;;;;;;;28.17;15.23;;;4.20;87.40;;;;;;5009724;28;20038;-87
2022/01/08 12:14:18;;;;;;;24.17;15.27;;;4.20;87.40;;;;;;4996565;28;20171;-87
2022/01/08 12:16:47;;;;;;;29.48;15.68;;;4.20;87.40;;;;;;4994132;28;20113;-87
2022/01/08 12:19:31;;;;;;;26.58;15.00;;;4.20;87.30;;;;;;4996770;28;20021;-87
2022/01/08 12:21:58;;;;;;;22.33;13.77;;;4.20;87.30;;;;;;4996263;28;20467;-86
2022/01/08 12:24:27;;;;;;;26.45;14.10;;;4.20;87.20;;;;;;4996699;28;20374;-87
2022/01/08 12:26:53;;;;;;;31.40;14.32;;;4.20;87.30;;;;;;4996572;28;20121;-87
2022/01/08 12:29:38;;;;;;;19.77;11.70;;;4.20;87.40;;;;;;4996648;28;20030;-87
2022/01/08 12:32:36;;;;;;;27.50;14.30;;;4.20;87.40;;;;;;4995793;28;20497;-87
2022/01/08 12:35:21;;;;;;;26.25;12.95;;;4.30;87.30;;;;;;4980071;28;20042;-86
2022/01/08 12:38:01;;;;;;;22.25;12.50;;;4.30;87.30;;;;;;4996427;28;20071;-86
2022/01/08 12:40:35;;;;;;;22.75;12.60;;;4.30;87.30;;;;;;4996385;28;20025;-87
2022/01/08 12:43:31;;;;;;;19.25;11.90;;;4.30;87.20;;;;;;4996297;28;20026;-86
2022/01/08 12:46:17;;;;;;;17.02;11.10;;;4.30;87.20;;;;;;5013662;28;20539;-86
2022/01/08 12:49:10;;;;;;;20.35;11.40;;;4.30;87.20;;;;;;4996747;28;20125;-89
2022/01/08 12:52:06;;;;;;;18.80;11.23;;;4.40;87.30;;;;;;4993771;28;20030;-89
2022/01/08 12:54:32;;;;;;;18.17;11.10;;;4.40;87.10;;;;;;5014722;28;20053;-89
2022/01/08 12:57:04;;;;;;;17.45;10.70;;;4.40;87.10;;;;;;4996891;28;20030;-89
2022/01/08 12:59:33;;;;;;;22.15;11.27;;;4.40;87.10;;;;;;4965909;28;20108;-89
2022/01/08 13:01:59;;;;;;;22.10;10.40;;;4.50;86.80;;;;;;4996316;28;20029;-89
2022/01/08 13:04:25;;;;;;;17.42;10.73;;;4.50;86.60;;;;;;4971981;28;20460;-89
2022/01/08 13:06:52;;;;;;;17.45;9.60;;;4.50;86.50;;;;;;4974996;28;21144;-89
2022/01/08 13:09:17;;;;;;;16.58;9.82;;;4.50;86.60;;;;;;4985356;28;20042;-89
2022/01/08 13:11:45;;;;;;;19.58;9.63;;;4.50;86.60;;;;;;5000612;28;20030;-87
2022/01/08 13:14:16;;;;;;;18.73;8.98;;;4.50;86.50;;;;;;5002483;28;20026;-87